Weather observations for the past three days for
Marysville Municipal Airport
Metric (Imperial)
Date Time (cdt) Wind (kph) Vis. (km) Weather Sky Cond. Temperature (ºC) Relative Humidity Wind Chill (°C) Heat Index (°C) Pressure Precipitation (cm)
Air Dwpt 6 hour altimeter (cm) sea level (mb) 1 hr 3 hr 6 hr
Max. Min.
07 14:35 W 24 G 43 16.09 Fair CLR 23 -1 20% 75.79 0.0
07 14:15 SW 22 G 46 16.09 Fair CLR 22 0 23% 75.82 0.0
07 13:55 SW 20 G 39 16.09 Fair CLR 22 0 23% 75.82 0.0
07 13:35 SW 24 G 39 16.09 Fair CLR 21 0 25% 75.82 0.0
07 13:15 SW 30 G 43 16.09 Fair CLR 21 0 25% 75.84 0.0
07 12:55 SW 22 G 43 16.09 Fair CLR 20 0 26% 75.87 0.0
07 12:35 SW 24 G 44 16.09 Fair CLR 20 0 26% 75.9 0.0
07 12:15 SW 26 G 35 16.09 Fair CLR 19 1 30% 75.95 0.0
07 11:55 SW 26 G 37 16.09 Fair CLR 18 1 32% 75.97 0.0
07 11:35 SW 24 G 39 16.09 Fair CLR 18 1 32% 76 0.0
07 11:15 S 28 G 33 16.09 Fair CLR 17 2 37% 76 0.0
07 10:55 S 20 G 28 16.09 Fair CLR 16 2 39% 76 0.0
07 10:35 SW 20 G 37 16.09 Fair CLR 16 2 39% 76.05 0.0
07 10:15 SW 24 16.09 Fair CLR 15 2 42% 76.05 0.0
07 09:55 SW 22 16.09 Fair CLR 15 2 42% 76.07 0.0
07 09:35 SW 19 G 30 16.09 Fair CLR 13 2 47% 76.1 0.0
07 09:15 SW 19 G 28 16.09 Fair CLR 12 3 54% 76.12 0.0
07 08:55 SW 20 16.09 Fair CLR 12 2 51% 76.12 0.0
07 08:35 SW 17 16.09 Fair CLR 11 3 58% 76.12 0.0
07 08:15 SW 15 G 31 16.09 Fair CLR 10 3 62% 8 76.15 0.0
07 07:55 SW 15 16.09 Fair CLR 8 3 71% 6 76.15 0.0
07 07:35 SW 15 16.09 Fair CLR 7 3 76% 5 76.12 0.0
07 07:15 SW 13 16.09 Fair CLR 7 3 76% 5 76.12 0.0
07 06:55 SW 15 16.09 Fair CLR 6 2 76% 3 76.12 0.0
07 06:35 SW 11 16.09 Fair CLR 6 3 81% 4 76.15 0.0
07 06:15 SW 13 16.09 Fair CLR 6 3 81% 4 76.15 0.0
07 05:55 SW 11 16.09 Fair CLR 6 2 76% 4 76.15 0.0
07 05:35 SW 11 16.09 Fair CLR 6 2 76% 4 76.15 0.0
07 05:15 SW 6 16.09 Fair CLR 6 2 76% 76.17 0.0
07 04:55 SW 6 16.09 Fair CLR 6 3 81% 76.17 0.0
07 04:35 SW 7 16.09 Fair CLR 6 3 81% 5 76.17 0.0
07 04:15 SW 9 16.09 Fair CLR 6 2 76% 4 76.2 0.0
07 03:55 S 9 16.09 Fair CLR 6 2 76% 4 76.2 0.0
07 03:35 SW 9 16.09 Fair CLR 6 2 76% 4 76.2 0.0
07 03:15 S 7 16.09 Fair CLR 5 1 76% 4 76.23 0.0
07 02:55 S 7 16.09 Fair CLR 5 1 76% 4 76.23 0.0
07 02:15 S 9 16.09 Fair CLR 6 1 71% 4 76.25 0.0
07 01:55 S 7 16.09 Fair CLR 6 1 71% 5 76.28 0.0
07 01:35 S 7 16.09 Fair CLR 6 0 66% 5 76.28 0.0
07 01:15 S 9 16.09 Fair CLR 6 0 66% 4 76.3 0.0
07 00:55 S 7 16.09 Fair CLR 6 0 66% 5 76.3 0.0
07 00:35 S 6 16.09 Fair CLR 7 0 61% 76.33 0.0
07 00:15 SW 9 16.09 Fair CLR 7 -1 57% 5 76.33 0.0
06 23:55 S 7 16.09 Fair CLR 7 -1 57% 6 76.33 0.0
06 23:35 S 9 16.09 Fair CLR 7 -1 57% 5 76.33 0.0
06 23:15 S 7 16.09 Fair CLR 8 -1 53% 7 76.33 0.0
06 22:55 S 6 16.09 Fair CLR 9 -1 50% 76.33 0.0
06 22:35 SW 7 16.09 Fair CLR 10 -2 43% 9 76.33 0.0
06 22:15 SW 9 16.09 Fair CLR 10 -2 43% 9 76.33 0.0
06 21:35 S 6 16.09 Fair CLR 10 -1 47% 76.3 0.0
06 21:15 Calm 16.09 Fair CLR 9 -2 46% 76.28 0.0
06 20:55 S 6 16.09 Fair CLR 10 -2 43% 76.28 0.0
06 20:35 S 6 16.09 Fair CLR 11 -4 35% 76.28 0.0
06 20:15 Calm 16.09 Fair CLR 13 -6 26% 76.28 0.0
06 19:55 Calm 16.09 Fair CLR 13 -7 24% 76.25 0.0
06 19:35 NW 7 16.09 Fair CLR 15 -7 21% 76.28 0.0
06 19:15 W 11 16.09 Fair CLR 15 -7 21% 76.28 0.0
06 18:55 NW 11 16.09 Fair CLR 16 -8 19% 76.28 0.0
06 18:35 W 15 16.09 Fair CLR 16 -8 19% 76.28 0.0
06 18:15 NW 11 16.09 Fair CLR 15 -8 20% 76.3 0.0
06 17:55 W 11 16.09 Partly Cloudy SCT080 16 -8 19% 76.3 0.0
06 17:35 NW 15 16.09 Mostly Cloudy BKN080 17 -9 16% 76.3 0.0
06 16:55 W 7 16.09 Fair CLR 15 -8 20% 76.33 0.0
06 16:35 W 13 G 26 16.09 Fair CLR 17 -8 17% 76.35 0.0
06 16:15 NW 11 16.09 Fair CLR 16 -8 19% 76.38 0.0
06 15:55 NW 6 16.09 Partly Cloudy SCT080 16 -8 19% 76.38 0.0
06 15:35 S 7 16.09 Mostly Cloudy BKN080 16 -7 20% 76.4 0.0
06 15:15 NW 13 16.09 Partly Cloudy SCT080 16 -8 19% 76.43 0.0
06 14:55 NW 17 G 31 16.09 Partly Cloudy SCT080 16 -8 19% 76.45 0.0
06 14:35 N 15 G 28 16.09 Partly Cloudy SCT080 15 -9 18% 76.45 0.0
06 14:15 N 19 16.09 Fair CLR 15 -10 17% 76.45 0.0
06 13:55 NW 15 G 26 16.09 Fair CLR 15 -9 18% 76.45 0.0
06 13:35 SW 6 16.09 Fair CLR 15 -8 20% 76.45 0.0
06 13:15 NW 19 16.09 Fair CLR 14 -8 21% 76.45 0.0
06 12:55 N 11 16.09 Fair CLR 14 -9 20% 76.48 0.0
06 12:35 NW 17 16.09 Fair CLR 14 -10 18% 76.5 0.0
06 12:15 NW 9 G 15 16.09 Fair CLR 13 -10 19% 76.5 0.0
06 11:55 W 9 16.09 Fair CLR 13 -7 24% 76.5 0.0
06 11:35 W 11 16.09 Fair CLR 13 -6 26% 76.53 0.0
06 11:15 NE 7 16.09 Fair CLR 12 -7 26% 76.53 0.0
06 10:55 N 6 16.09 Fair CLR 11 -6 30% 76.53 0.0
06 10:35 Calm 16.09 Partly Cloudy SCT120 11 -6 30% 76.53 0.0
06 10:15 Calm 16.09 Mostly Cloudy BKN120 10 -5 35% 76.53 0.0
06 09:55 NE 6 16.09 Partly Cloudy SCT120 10 -5 35% 76.5 0.0
06 09:35 N 6 16.09 Fair CLR 9 -3 43% 76.5 0.0
06 09:15 N 7 16.09 Fair CLR 9 -3 43% 8 76.5 0.0
06 08:55 Calm 16.09 Partly Cloudy SCT080 8 -2 50% 76.5 0.0
06 08:35 NW 6 16.09 Fair CLR 8 -1 53% 76.48 0.0
06 08:15 Calm 16.09 Fair CLR 7 0 61% 76.45 0.0
06 07:55 NW 6 16.09 Fair CLR 7 0 61% 76.45 0.0
06 07:15 NW 6 16.09 Fair CLR 6 0 66% 76.4 0.0
06 06:55 Calm 16.09 Partly Cloudy SCT085 5 0 70% 76.35 0.0
06 06:35 Calm 16.09 Mostly Cloudy BKN085 5 0 70% 76.33 0.0
06 05:55 N 6 16.09 Fair CLR 6 0 66% 76.3 0.0
06 05:35 Calm 16.09 Fair CLR 6 0 66% 76.3 0.0
06 05:15 N 6 16.09 Partly Cloudy SCT120 7 -1 57% 76.3 0.0
06 04:55 N 7 16.09 Mostly Cloudy SCT095 BKN120 7 0 61% 6 76.28 0.0
06 04:35 Calm 16.09 Overcast BKN085 OVC095 7 0 61% 76.28 0.0
06 04:15 Calm 16.09 Overcast SCT080 OVC095 7 0 61% 76.28 0.0
06 03:55 Calm 16.09 Overcast OVC085 8 -1 53% 76.25 0.0
06 03:35 Calm 16.09 Overcast SCT055 SCT065 OVC075 8 -1 53% 76.25 0.0
06 03:15 Calm 16.09 Overcast OVC065 8 0 57% 76.25 0.0
06 02:55 Calm 16.09 Overcast SCT065 OVC080 8 0 57% 76.23 0.0
06 02:35 Calm 16.09 Overcast BKN070 OVC080 8 0 57% 76.23 0.0
06 02:15 Calm 16.09 Overcast BKN075 OVC090 8 -1 53% 76.23 0.0
06 01:55 N 6 16.09 Overcast BKN090 OVC110 8 -2 50% 76.2 0.0
06 01:35 N 6 16.09 Overcast OVC110 8 -2 50% 76.2 0.0
06 01:15 N 6 16.09 Overcast OVC110 9 -3 43% 76.2 0.0
06 00:50 N 7 16.09 Overcast OVC110 9 -2 46% 8 76.17 0.0
06 00:35 N 7 16.09 Overcast OVC110 9 -2 46% 8 76.17 0.0
06 00:15 N 7 16.09 Overcast OVC110 9 -1 50% 8 76.12 0.0
05 23:55 NE 6 16.09 Overcast OVC100 10 -1 47% 76.15 0.0
05 23:35 NE 6 16.09 Overcast OVC090 10 0 50% 76.12 0.0
05 23:15 Calm 16.09 Overcast OVC100 10 0 50% 76.17 0.0
05 22:55 N 7 16.09 Overcast OVC100 10 -1 47% 9 76.17 0.0
05 22:35 N 9 16.09 Overcast OVC100 10 -1 47% 9 76.17 0.0
05 22:15 Calm 16.09 Overcast SCT075 OVC100 11 -2 41% 76.12 0.0
05 21:55 NE 6 16.09 Overcast BKN075 OVC095 12 -4 33% 76.07 0.0
05 21:35 Calm 16.09 Overcast BKN085 OVC095 10 -1 47% 76.07 0.0
05 21:15 Calm 16.09 Overcast SCT065 BKN095 OVC120 11 -2 41% 76 0.0
05 20:55 Calm 16.09 Overcast OVC075 11 -2 41% 76 0.0
05 20:35 N 6 16.09 Overcast BKN075 OVC095 12 -3 35% 76.02 0.0
05 20:15 N 9 16.09 Overcast OVC095 12 -3 35% 76 0.0
05 19:55 N 15 16.09 Overcast OVC095 12 -4 33% 76 0.0
05 19:35 N 15 16.09 Overcast OVC095 13 -3 33% 75.95 0.0
05 18:55 N 19 16.09 Mostly Cloudy BKN095 BKN120 13 -4 31% 75.95 0.0
05 18:35 N 15 16.09 Overcast OVC095 13 -4 31% 75.92 0.0
05 18:15 N 15 16.09 Overcast BKN060 BKN070 OVC095 13 -3 33% 75.95 0.0
05 17:55 N 15 16.09 Overcast BKN065 OVC080 13 -3 33% 75.95 0.0
05 17:35 N 6 16.09 Overcast BKN065 OVC090 13 -2 36% 75.95 0.0
05 17:15 N 9 16.09 Overcast OVC090 13 -2 36% 75.95 0.0
05 16:55 N 13 16.09 Overcast OVC090 13 -3 33% 75.95 0.0
05 16:35 N 11 16.09 Overcast OVC090 13 -3 33% 75.95 0.0
05 16:15 N 15 16.09 Overcast OVC090 13 -3 33% 76 0.0
05 15:55 N 11 16.09 Overcast OVC090 13 -3 33% 76 0.0
05 15:35 N 17 16.09 Overcast OVC090 13 -3 33% 76 0.0
05 15:15 N 15 16.09 Overcast OVC090 12 -3 35% 76.02 0.0
05 14:55 N 20 16.09 Overcast OVC090 12 -2 38% 76.02 0.0
05 14:35 N 17 G 28 16.09 Overcast BKN090 OVC110 12 -2 38% 76.05 0.0
05 14:15 N 15 16.09 Overcast SCT047 BKN065 OVC100 12 -1 41% 76.05 0.0
05 13:55 N 17 16.09 Unknown Precip SCT043 OVC049 12 0 44% 76.02 0.0
05 13:35 N 11 16.09 Unknown Precip SCT040 BKN049 OVC055 12 0 44% 76.05 0.0
05 13:15 N 15 16.09 Overcast SCT050 OVC060 12 2 51% 76.05 0.0
05 12:55 N 11 16.09 Overcast SCT050 OVC070 12 2 51% 76.05 0.0
05 12:15 N 7 16.09 Overcast OVC070 11 1 50% 76.07 0.0
05 11:55 N 7 16.09 Overcast BKN070 OVC085 11 1 50% 76.07 0.0
05 11:35 Calm 16.09 Overcast BKN070 OVC080 10 2 58% 76.07 0.0
05 11:15 N 7 16.09 Overcast BKN075 BKN080 OVC110 10 3 62% 9 76.05 0.0
05 10:55 N 9 16.09 Overcast SCT090 OVC110 10 4 67% 9 76.05 0.0
05 10:35 N 7 16.09 Overcast OVC090 10 3 62% 9 76.02 0.0
05 10:15 N 6 16.09 Overcast SCT070 OVC090 10 3 62% 76.02 0.0
05 09:55 N 7 16.09 Overcast SCT050 BKN060 OVC080 9 5 76% 8 76.02 0.0
05 09:35 N 7 16.09 Overcast BKN050 OVC060 8 5 82% 7 76.02 0.0
05 09:15 N 9 16.09 Overcast BKN065 OVC070 8 5 82% 7 76.02 0.0
05 08:55 N 6 16.09 Overcast OVC065 8 3 71% 76.02 0.0
05 08:35 SE 7 16.09 Unknown Precip BKN060 OVC075 8 3 71% 7 75.95 0.0
05 08:15 E 6 16.09 Overcast OVC060 8 3 71% 75.95 0.0
05 07:55 N 7 16.09 Unknown Precip SCT049 SCT055 OVC070 8 5 82% 7 75.92 0.0
05 07:30 NE 6 16.09 Unknown Precip SCT055 OVC070 7 4 81% 75.92 0.0
05 07:15 E 11 16.09 Unknown Precip SCT055 OVC070 7 4 81% 5 75.87 0.0
05 06:55 NE 6 11.27 Unknown Precip BKN070 OVC085 8 3 71% 75.9 0.0 0.05
05 06:35 NE 6 11.27 Unknown Precip SCT070 OVC085 8 2 66% 75.87 0.0
05 06:15 N 7 16.09 Overcast OVC085 8 2 66% 7 75.84 0.0
05 05:55 NE 13 16.09 Unknown Precip OVC085 9 1 58% 7 75.74 0.0
05 05:15 NE 11 16.09 Unknown Precip OVC085 10 0 50% 9 75.77 0.0
05 04:55 NE 11 16.09 Overcast OVC085 10 0 50% 9 75.77 0.0
05 04:35 NE 13 16.09 Overcast OVC085 10 0 50% 8 75.74 0.0
05 04:15 NE 13 16.09 Overcast OVC085 11 0 47% 75.74 0.0
05 03:55 NE 15 16.09 Overcast OVC085 11 0 47% 75.74 0.0
05 03:35 NE 20 G 28 16.09 Overcast OVC085 11 0 47% 75.74 0.0
05 03:15 NE 19 G 26 16.09 Overcast OVC085 11 0 47% 75.74 0.0
05 02:55 NE 19 16.09 Overcast OVC085 11 0 47% 75.74 0.0
05 02:35 NE 15 G 26 16.09 Overcast BKN085 OVC110 11 -1 44% 75.74 0.0
05 02:15 NE 20 G 26 16.09 Overcast BKN085 OVC110 11 -1 44% 75.72 0.0
05 01:55 NE 19 16.09 Overcast OVC085 12 -1 41% 75.74 0.0
05 01:35 NE 24 G 35 16.09 Overcast OVC085 12 -1 41% 75.69 0.0
05 01:15 N 24 G 35 16.09 Overcast OVC095 12 -1 41% 75.67 0.0
05 00:55 NE 19 16.09 Mostly Cloudy SCT080 BKN095 12 0 44% 75.67 0.0
05 00:35 N 28 G 46 16.09 Overcast SCT070 SCT085 OVC095 13 -2 36% 75.62 0.0
05 00:15 N 20 G 37 16.09 Overcast BKN085 OVC120 13 -2 36% 75.69 0.0
04 23:55 N 20 G 30 16.09 Partly Cloudy SCT120 14 -2 33% 75.64 0.0
04 23:35 N 33 G 46 16.09 Fair and Breezy CLR 14 -2 33% 75.57 0.0
04 23:15 N 24 G 35 16.09 Fair CLR 15 -2 31% 75.57 0.0
04 22:55 N 28 G 39 16.09 Fair CLR 15 -2 31% 75.59 0.0
04 22:35 N 26 G 35 16.09 Fair CLR 16 -2 29% 75.57 0.0
04 22:15 N 28 G 39 16.09 Fair CLR 17 -2 27% 75.54 0.0
04 21:55 N 30 G 41 16.09 Fair CLR 18 -2 26% 75.49 0.0
04 21:35 N 20 G 30 16.09 Fair CLR 18 -2 26% 75.44 0.0
04 21:15 N 22 G 33 16.09 Fair CLR 19 -2 24% 75.39 0.0
04 20:55 N 26 G 35 16.09 Fair CLR 20 -2 23% 75.36 0.0
04 20:35 N 28 G 44 16.09 Fair CLR 21 -2 21% 75.31 0.0
04 20:15 N 24 G 31 16.09 Fair CLR 21 -2 21% 75.26 0.0
04 19:55 N 20 G 41 16.09 Fair CLR 22 -2 20% 75.23 0.0
04 19:35 N 28 G 44 16.09 Fair CLR 23 -2 19% 75.21 0.0
04 19:15 NE 30 G 44 16.09 Fair CLR 25 -1 18% 25 75.16 0.0
04 18:55 N 24 G 41 16.09 Fair CLR 25 0 19% 25 75.16 0.0
04 18:35 N 30 G 41 16.09 Fair CLR 27 0 17% 26 75.13 0.0
04 18:15 N 26 G 39 16.09 Fair CLR 28 -5 11% 27 75.13 0.0
04 17:55 Calm 16.09 Fair CLR 29 -10 7% 27 75.13 0.0
04 17:35 NW 15 16.09 Fair CLR 30 -10 7% 28 75.11 0.0
04 17:15 NW 13 16.09 Fair CLR 30 -10 7% 28 75.08 0.0
04 16:55 W 6 16.09 Fair CLR 29 -3 12% 27 75.08 0.0
04 16:35 W 13 16.09 Fair CLR 30 -5 10% 28 75.11 0.0
04 16:15 W 7 16.09 Fair CLR 30 -7 8% 28 75.11 0.0
04 15:55 W 9 16.09 Fair CLR 29 -7 9% 27 75.13 0.0
04 15:35 NW 15 G 33 16.09 Fair CLR 30 -7 8% 28 75.16 0.0
04 15:15 W 7 16.09 Fair CLR 29 -5 10% 27 75.16 0.0
Date Time (cdt) Wind (kph) Vis. (km) Weather Sky Cond. Air Dwpt Max. Min. Relative Humidity Wind Chill (°C) Heat Index (°C) altimeter (cm) sea level (mb) 1 hr 3 hr 6 hr
6 hour
Temperature (ºC) Pressure Precipitation (cm)